CheckWX is a tool to help pilots better visualize weather data.  It is not intended as a substitute for an official pre-flight weather briefing.

20:56:46 UTC

ESCF METAR
Malmen Air Base Airport
Linköping, Sweden
Current

37 mins ago

ESCF 182020Z AUTO 20006KT 8000 BR OVC066/// 04/03 Q1009
Observed
Feb-18 @ 20:20 UTC
Wind
  • 200° at 6 KTS
Visibility
7,998 meters
Flight Rules
MVFR
Conditions
Mist
Cloud Levels
  • Overcast at 6,600' AGL
Temperature
C / 39°F
Dewpoint
C / 37°F
Humidity
93%
Altimeter
29.79" Hg
Pressure
1008.92 hPa
Previous

1 hour ago

ESCF 181950Z AUTO 21005KT 9000 BR FEW049/// SCT070/// 04/03 Q1009
Observed
Feb-18 @ 19:50 UTC
Wind
  • 210° at 5 KTS
Visibility
8,996 meters
Flight Rules
VFR
Conditions
Mist
Cloud Levels
  • Few at 4,900' AGL
  • Scattered at 7,000' AGL
Temperature
C / 39°F
Dewpoint
C / 37°F
Humidity
93%
Altimeter
29.79" Hg
Pressure
1008.92 hPa
Previous

2 hours ago

ESCF 181920Z AUTO 21007KT 9000 BR FEW066/// 04/03 Q1009
Observed
Feb-18 @ 19:20 UTC
Wind
  • 210° at 7 KTS
Visibility
8,996 meters
Flight Rules
VFR
Conditions
Mist
Cloud Levels
  • Few at 6,600' AGL
Temperature
C / 39°F
Dewpoint
C / 37°F
Humidity
93%
Altimeter
29.79" Hg
Pressure
1008.92 hPa